Tiempo atmosférico en la estación meteorológica de Almadén, Ciudad Real (535 m.)

Fecha
DESCASC
Temp. máxima en grados centígrados (hora)
DESCASC
Temp. mínima en grados centígrados (hora)
DESCASC
Temp. media en grados centígrados
DESCASC
Racha de viento máxima en m/sg (hora)
DESCASC
Velocidad máxima media en intervalos de 10 minutos(hora)
DESCASC
Precipitaciones diarias en mm
DESCASC
Precipitaciones de 00:00 a 06:00 en mm
DESCASC
Precipitaciones de 06:00 a 12:00 en mm
DESCASC
Precipitaciones de 12:00 a 18:00 en mm
DESCASC
Precipitaciones de 18:00 a 24:00 en mm
DESCASC
10-12-2017 12.4 (15:10) 10.1 (09:30) 11.3 20.56 (23:20) 10 (23:00) 0 0 0 0 0
09-12-2017 15.2 (14:20) 9.9 (08:40) 12.5 6.11 (15:00) 2.22 (15:00) 0 0 0 0 0
08-12-2017 15.5 (14:30) 2.5 (07:50) 9 4.72 (15:10) 2.78 (11:30) 0 0 0 0 0
07-12-2017 15.7 (15:50) 0.8 (00:00) 8.2 2.5 (14:50) 1.39 (14:50) 0 0 0 0 0
06-12-2017 16.9 (15:50) 1 (00:00) 8.9 2.78 (13:40) 1.11 (11:50) 0 0 0 0 0
05-12-2017 15.6 (16:40) 0.9 (00:00) 8.3 5.28 (00:30) 2.5 (00:10) 0 0 0 0 0
04-12-2017 14.1 (16:00) 0.9 (00:00) 7.5 8.33 (13:00) 4.72 (13:00) 0 0 0 0 0
03-12-2017 10.7 (16:50) 0.5 (00:00) 5.6 6.94 (13:10) 3.61 (13:30) 0 0 0 0 0
02-12-2017 11.8 (15:50) -0.5 (-00:0) 5.7 7.5 (16:20) 4.17 (00:20) 0 0 0 0 0
01-12-2017 10.7 (16:50) -0.8 (-00:0) 4.9 10.83 (19:20) 6.11 (19:20) 0 0 0 0 0
30-11-2017 10.5 (15:20) 3.9 (00:00) 7.2 10.56 (12:30) 5.83 (11:40) 0 0 0 0 0
29-11-2017 15 (15:30) 7.4 (00:00) 11.2 6.11 (23:20) 3.61 (22:50) 6 5.4 0.6 0 0
28-11-2017 12.3 (00:00) 10.4 (00:00) 11.3 6.94 (20:20) 4.44 (20:30) 6.6 0 0.8 3 2.8
27-11-2017 17.5 (15:20) 7.1 (00:00) 12.3 4.17 (14:20) 2.5 (13:20) 0 0 0 0 0
26-11-2017 16.6 (17:10) 7.4 (00:00) 12 7.22 (10:50) 3.06 (10:50) 0 0 0 0 0
25-11-2017 15.7 (15:30) 11 (00:00) 13.3 5.28 (09:30) 3.33 (09:30) 0 0 0 0 0
24-11-2017 22.6 (14:30) 11.3 (00:00) 17 8.06 (14:10) 5 (17:30) 0 0 0 0 0
23-11-2017 20.9 (15:50) 12 (00:00) 16.4 7.22 (18:30) 4.17 (05:30) 0 0 0 0 0
22-11-2017 22.6 (16:30) 5.5 (00:00) 14.1 7.5 (19:30) 5 (19:40) 0 0 0 0 0
21-11-2017 23.8 (16:50) 6.5 (00:00) 15.1 4.17 (14:30) 1.94 (14:00) 0 0 0 0 0
20-11-2017 24.2 (16:10) 7.2 (00:00) 15.7 3.33 (13:20) 1.94 (12:20) 0 0 0 0 0
19-11-2017 23.3 (16:30) 8 (00:00) 15.6 5 (16:00) 1.94 (11:50) 0 0 0 0 0
18-11-2017 23.3 (15:50) 7 (00:00) 15.1 3.61 (12:50) 1.67 (14:30) 0 0 0 0 0
17-11-2017 23.2 (15:40) 6.5 (00:00) 14.9 3.61 (13:50) 2.22 (13:40) 0 0 0 0 0
16-11-2017 22.2 (15:50) 4.8 (00:00) 13.5 2.5 (15:00) 1.39 (12:20) 0 0 0 0 0
15-11-2017 19.3 (15:30) 4.1 (00:00) 11.7 3.89 (13:20) 2.5 (13:10) 0 0 0 0 0

Gráficas

Temp. máximas Temp. mínimas Temp. medias Precipitaciones Rachas de viento máximas Velocidades máximas media en intervalos de 10 minutos

Datos horarios

Fecha y hora oficial Temperatura (ºC) Velocidad del viento (km/h) Dirección del viento Racha (km/h) Dirección de racha Precipitación (mm) Presión (hPa) Tendencia (hPa) Humedad (%)
2017-12-14 23:00:00 10.8 5 Oeste 14 Oeste 0 -- -- 99
2017-12-14 22:00:00 10.8 5 Sur 22 Sur 0 -- -- 99
2017-12-14 21:00:00 10.8 8 Sudoeste 32 Sudoeste 0.2 -- -- 100
2017-12-14 20:00:00 10.8 8 Sudoeste 24 Sudoeste 0.2 -- -- 100
2017-12-14 19:00:00 10.9 9 Oeste 18 Sudoeste 0.2 -- -- 100
2017-12-14 18:00:00 10.9 9 Sudoeste 19 Oeste 0.2 -- -- 100
2017-12-14 17:00:00 10.7 3 Oeste 13 Oeste 0.2 -- -- 100
2017-12-14 16:00:00 10.2 4 Sudoeste 8 Sudoeste 0 -- -- 100
2017-12-14 15:00:00 9.6 4 Sudoeste 15 Sudoeste 0 -- -- 100
2017-12-14 14:00:00 9 12 Sudoeste 15 Sudoeste 0 -- -- 100
2017-12-14 13:00:00 8.6 13 Sudoeste 23 Sudoeste 0 -- -- 100
2017-12-14 12:00:00 8 13 Sudoeste 22 Sudoeste 0 -- -- 100
2017-12-14 11:00:00 7.1 9 Sudoeste 15 Sudoeste 0 -- -- 100
2017-12-14 10:00:00 6.1 7 Sudoeste 15 Sudoeste 0 -- -- 99
2017-12-14 09:00:00 5.8 6 Sudoeste 15 Sudoeste 0 -- -- 98
2017-12-14 08:00:00 5.9 5 Sudoeste 10 Sudoeste 0 -- -- 93
2017-12-14 07:00:00 6.8 3 Sudoeste 13 Sudoeste 0 -- -- 88
2017-12-14 06:00:00 6.7 4 Sudoeste 8 Sur 0 -- -- 78
2017-12-14 05:00:00 6.8 0 Calma 8 Sudoeste 0 -- -- 75
2017-12-14 04:00:00 6.6 6 Sudoeste 10 Sudoeste 0 -- -- 74
2017-12-14 03:00:00 7.1 4 Sur 8 Sur 0 -- -- 70
2017-12-14 02:00:00 7.1 0 Calma 7 Sur 0 -- -- 69
2017-12-14 01:00:00 7 4 Sur 13 Sur 0 -- -- 68
2017-12-14 00:00:00 7.3 6 Sur 12 Sur 0 -- -- 68
2017-12-13 23:00:00 7.8 0 Calma 2 Sur 0 -- -- 73
2017-12-13 22:00:00 8 0 Calma 8 Oeste 0 -- -- 70
2017-12-13 21:00:00 8.1 0 Calma 4 Oeste 0 -- -- 68
2017-12-13 20:00:00 7.6 0 Calma 3 Sudoeste 0 -- -- 68
2017-12-13 19:00:00 8.3 0 Calma 3 Oeste 0 -- -- 64
2017-12-13 18:00:00 9.6 0 Calma 14 Sudoeste 0 -- -- 60
2017-12-13 17:00:00 12 5 Sudoeste 12 Oeste 0 -- -- 48
2017-12-13 16:00:00 12.9 4 Oeste 15 Oeste 0 -- -- 45
2017-12-13 15:00:00 13 7 Sudoeste 17 Oeste 0 -- -- 41
2017-12-13 14:00:00 11.1 3 Noroeste 15 Sudoeste 0 -- -- 46
2017-12-13 13:00:00 9.7 10 Sur 14 Sur 0 -- -- 60
2017-12-13 12:00:00 8.1 6 Sur 9 Sur 0 -- -- 66
2017-12-13 11:00:00 5.6 2 Sur 5 Sur 0 -- -- 76
2017-12-13 10:00:00 1.7 0 Calma 5 Sur 0 -- -- 94
2017-12-13 09:00:00 -0.2 0 Calma 13 Sudoeste 0 -- -- 94
2017-12-13 08:00:00 0.5 0 Calma 2 Sudeste 0 -- -- 92
2017-12-13 07:00:00 0.5 0 Calma 2 Norte 0 -- -- 92
2017-12-13 06:00:00 0.8 0 Calma 8 Sur 0 -- -- 91
2017-12-13 05:00:00 1.2 0 Calma 4 Sur 0 -- -- 89
2017-12-13 04:00:00 1.4 0 Calma 3 Sur 0 -- -- 88
2017-12-13 03:00:00 1.8 0 Calma 3 Sur 0 -- -- 88
2017-12-13 02:00:00 2.2 0 Calma 2 Sudeste 0 -- -- 87
2017-12-13 01:00:00 2.7 0 Calma 3 Sur 0 -- -- 83
2017-12-13 00:00:00 3.7 0 Calma 4 Nordeste 0 -- -- 78
2017-12-12 23:00:00 4.2 0 Calma 3 Nordeste 0 -- -- 75
2017-12-12 22:00:00 4.5 0 Calma 2 Sudeste 0 -- -- 72
2017-12-12 21:00:00 4.9 0 Calma 5 Norte 0 -- -- 72
2017-12-12 20:00:00 5.5 0 Calma 4 Noroeste 0 -- -- 69
2017-12-12 19:00:00 6.2 0 Calma 8 Oeste 0 -- -- 65
2017-12-12 18:00:00 7.5 0 Calma 9 Noroeste 0 -- -- 62
2017-12-12 17:00:00 10.2 4 Noroeste 13 Oeste 0 -- -- 55
2017-12-12 16:00:00 11.1 2 Norte 12 Oeste 0 -- -- 53
2017-12-12 15:00:00 10.1 5 Oeste 15 Norte 0 -- -- 55
2017-12-12 14:00:00 9.8 3 Norte 12 Norte 0 -- -- 50
2017-12-12 13:00:00 8.9 3 Norte 7 Este 0.2 -- -- 59
2017-12-12 12:00:00 7.5 0 Calma 5 Norte 0 -- -- 66
2017-12-12 11:00:00 6.1 0 Calma 8 Sudoeste 0 -- -- 78
2017-12-12 10:00:00 3.1 3 Sur 6 Sur 0 -- -- 94
2017-12-12 09:00:00 2.2 0 Calma 3 Oeste 0 -- -- 95
2017-12-12 08:00:00 2.4 0 Calma 6 Nordeste 0 -- -- 95
2017-12-12 07:00:00 2.3 0 Calma 3 Sudeste 0 -- -- 96
2017-12-12 06:00:00 2.3 0 Calma 5 Noroeste 0 -- -- 95
2017-12-12 05:00:00 3.1 0 Calma 4 Sudoeste 0 -- -- 95
2017-12-12 04:00:00 4 0 Calma 4 Norte 0 -- -- 93
2017-12-12 03:00:00 4.3 0 Calma 5 Norte 0 -- -- 93
2017-12-12 02:00:00 4.5 0 Calma 10 Oeste 0 -- -- 94
2017-12-12 01:00:00 4.9 5 Noroeste 12 Oeste 0 -- -- 92
2017-12-12 00:00:00 5.9 4 Oeste 20 Oeste 0 -- -- 89
2017-12-11 23:00:00 6.5 7 Oeste 28 Noroeste 0 -- -- 86
2017-12-11 22:00:00 7.2 4 Noroeste 26 Oeste 0 -- -- 83
2017-12-11 21:00:00 7.4 10 Oeste 31 Noroeste 0 -- -- 83
2017-12-11 20:00:00 7.8 14 Oeste 32 Oeste 0 -- -- 82
2017-12-11 19:00:00 8.2 10 Oeste 28 Oeste 0 -- -- 78
2017-12-11 18:00:00 8.9 8 Oeste 27 Sudoeste 0 -- -- 70
2017-12-11 17:00:00 9 6 Noroeste 35 Oeste 0.2 -- -- 68
2017-12-11 16:00:00 9.1 19 Oeste 37 Oeste 0 -- -- 67
2017-12-11 15:00:00 8.9 15 Oeste 35 Oeste 0 -- -- 69
2017-12-11 14:00:00 9.1 12 Oeste 31 Oeste 0 -- -- 71
2017-12-11 13:00:00 8.1 13 Oeste 35 Oeste 0.2 -- -- 77
2017-12-11 12:00:00 7.4 17 Oeste 33 Oeste 0 -- -- 82
2017-12-11 11:00:00 6.5 9 Oeste 36 Oeste 0 -- -- 91
2017-12-11 10:00:00 5.9 15 Oeste 35 Oeste 0.2 -- -- 97
2017-12-11 09:00:00 5.4 12 Oeste 31 Oeste 0.2 -- -- 98
2017-12-11 08:00:00 4.8 14 Oeste 47 Noroeste 2 -- -- 98
2017-12-11 07:00:00 5 19 Noroeste 57 Noroeste 4.6 -- -- 99
2017-12-11 06:00:00 6.5 9 Noroeste 50 Oeste 4.2 -- -- 98
2017-12-11 05:00:00 7.5 19 Oeste 80 Sudoeste 5.6 -- -- 99
2017-12-11 04:00:00 11.7 48 Sudoeste 82 Sudoeste 0.4 -- -- 90
2017-12-11 03:00:00 11.6 45 Sudoeste 72 Sur 0.2 -- -- 89
2017-12-11 02:00:00 11.6 47 Sudoeste 85 Sur 0.4 -- -- 89
2017-12-11 01:00:00 12.2 43 Sur 84 Sur 0 -- -- 83
2017-12-11 00:00:00 11.5 27 Oeste 74 Sudoeste 0 -- -- 88
2017-12-10 23:00:00 12.2 36 Sur 70 Sur 0 -- -- 80
2017-12-10 22:00:00 12.3 26 Sudoeste 66 Sur 0 -- -- 80
2017-12-10 21:00:00 12 22 Sudoeste 51 Sudoeste 0 -- -- 82
2017-12-10 20:00:00 12.2 30 Sudoeste 56 Sur 0 -- -- 82
2017-12-10 19:00:00 11.7 24 Sudoeste 49 Sudoeste 0 -- -- 87
2017-12-10 18:00:00 11.3 14 Sudoeste 43 Oeste 0 -- -- 92
2017-12-10 17:00:00 10.8 14 Sudoeste 45 Sudoeste 0 -- -- 95
2017-12-10 16:00:00 11.4 19 Sudoeste 53 Sudoeste 0 -- -- 88
2017-12-10 15:00:00 12.3 8 Sudoeste 48 Sur 0 -- -- 80
2017-12-10 14:00:00 12 8 Sudoeste 32 Sur 0 -- -- 81
2017-12-10 13:00:00 11.2 9 Sudoeste 30 Sudoeste 0 -- -- 85
2017-12-10 12:00:00 10.8 9 Sudoeste 26 Sudoeste 0 -- -- 86
2017-12-10 11:00:00 10.6 11 Sudoeste 22 Sur 0 -- -- 88
2017-12-10 10:00:00 10.4 9 Oeste 29 Oeste 0 -- -- 90
2017-12-10 09:00:00 10.4 8 Oeste 26 Oeste 0 -- -- 89
2017-12-10 08:00:00 10.3 10 Oeste 25 Oeste 0 -- -- 90
2017-12-10 07:00:00 10.5 8 Oeste 23 Oeste 0 -- -- 90
2017-12-10 06:00:00 10.3 6 Oeste 17 Oeste 0 -- -- 94
2017-12-10 05:00:00 10.3 4 Noroeste 22 Oeste 0 -- -- 93
2017-12-10 04:00:00 10.7 6 Oeste 17 Oeste 0 -- -- 94
2017-12-10 03:00:00 10.7 4 Oeste 13 Oeste 0 -- -- 97
2017-12-10 02:00:00 10.7 4 Oeste 12 Oeste 0 -- -- 97
2017-12-10 01:00:00 10.6 0 Calma 12 Oeste 0 -- -- 95
2017-12-10 00:00:00 11.3 0 Calma 12 Oeste 0 -- -- 91
2017-12-09 23:00:00 12 4 Oeste 18 Oeste 0 -- -- 89
2017-12-09 22:00:00 13.2 6 Oeste 19 Oeste 0 -- -- 81
2017-12-09 21:00:00 13.6 5 Oeste 15 Oeste 0 -- -- 79
2017-12-09 20:00:00 14 4 Oeste 16 Oeste 0 -- -- 77
2017-12-09 19:00:00 14.3 5 Oeste 15 Oeste 0 -- -- 75
2017-12-09 18:00:00 14.7 3 Oeste 15 Oeste 0 -- -- 74
2017-12-09 17:00:00 14.9 4 Oeste 12 Oeste 0 -- -- 75
2017-12-09 16:00:00 14.5 2 Norte 19 Oeste 0 -- -- 76
2017-12-09 15:00:00 14.7 8 Oeste 22 Oeste 0 -- -- 76
2017-12-09 14:00:00 13.1 4 Oeste 15 Oeste 0 -- -- 84
2017-12-09 13:00:00 11.3 4 Oeste 14 Oeste 0 -- -- 100
2017-12-09 12:00:00 10.4 3 Oeste 15 Oeste 0 -- -- 100
2017-12-09 11:00:00 10.1 4 Oeste 17 Oeste 0 -- -- 100
2017-12-09 10:00:00 10.1 3 Oeste 11 Oeste 0 -- -- 100
2017-12-09 09:00:00 10 4 Oeste 12 Oeste 0 -- -- 100
2017-12-09 08:00:00 10 5 Noroeste 17 Noroeste 0 -- -- 100
2017-12-09 07:00:00 10.1 2 Oeste 8 Oeste 0 -- -- 100
2017-12-09 06:00:00 10.3 2 Noroeste 11 Norte 0 -- -- 100
2017-12-09 05:00:00 10.5 4 Oeste 13 Oeste 0 -- -- 100
2017-12-09 04:00:00 10.4 4 Oeste 14 Oeste 0 -- -- 99
2017-12-09 03:00:00 10.4 3 Oeste 20 Oeste 0 -- -- 98
2017-12-09 02:00:00 10.7 4 Oeste 14 Oeste 0 -- -- 96
2017-12-09 01:00:00 11 4 Oeste 9 Oeste 0 -- -- 90
2017-12-09 00:00:00 10.5 2 Sur 6 Norte 0 -- -- 79
2017-12-08 23:00:00 11 4 Sudoeste 11 Sudoeste 0 -- -- 81
2017-12-08 22:00:00 10.9 0 Calma 6 Oeste 0 -- -- 77
2017-12-08 21:00:00 10.6 0 Calma 10 Oeste 0 -- -- 66
2017-12-08 20:00:00 10.6 3 Oeste 12 Oeste 0 -- -- 57
2017-12-08 19:00:00 10.8 2 Oeste 10 Oeste 0 -- -- 51
2017-12-08 18:00:00 11.8 4 Noroeste 15 Oeste 0 -- -- 47
2017-12-08 17:00:00 13.2 5 Noroeste 13 Oeste 0 -- -- 45
2017-12-08 16:00:00 13.9 6 Noroeste 17 Oeste 0 -- -- 41
2017-12-08 15:00:00 14.8 7 Oeste 17 Noroeste 0 -- -- 36
2017-12-08 14:00:00 15 5 Oeste 17 Oeste 0 -- -- 38
2017-12-08 13:00:00 12.5 5 Sudoeste 12 Sudoeste 0 -- -- 43
2017-12-08 12:00:00 10.1 6 Sur 16 Sur 0 -- -- 51
2017-12-08 11:00:00 7 7 Sur 13 Sur 0 -- -- 56
2017-12-08 10:00:00 4.4 5 Sur 9 Sur 0 -- -- 70
2017-12-08 09:00:00 2.7 2 Sur 10 Sudoeste 0 -- -- 74
2017-12-08 08:00:00 2.6 0 Calma 2 Sudeste 0 -- -- 75
2017-12-08 07:00:00 2.9 0 Calma 4 Sudeste 0 -- -- 73
2017-12-08 06:00:00 3.7 2 Sur 5 Sur 0 -- -- 70
2017-12-08 05:00:00 3.7 0 Calma 2 Oeste 0 -- -- 74
2017-12-08 04:00:00 3.8 0 Calma 3 Norte 0 -- -- 73
2017-12-08 03:00:00 4 0 Calma 3 Norte 0 -- -- 73
2017-12-08 02:00:00 4.7 0 Calma 3 Sudeste 0 -- -- 68
2017-12-08 01:00:00 4.9 0 Calma 3 Sudeste 0 -- -- 67
2017-12-08 00:00:00 5.8 0 Calma 2 Norte 0 -- -- 63
2017-12-07 23:00:00 6.7 0 Calma 3 Norte 0 -- -- 61
2017-12-07 22:00:00 7.7 0 Calma 2 Nordeste 0 -- -- 56
2017-12-07 21:00:00 8.2 0 Calma 4 Norte 0 -- -- 53
2017-12-07 20:00:00 8.6 0 Calma 3 Oeste 0 -- -- 51
2017-12-07 19:00:00 9.4 0 Calma 3 Norte 0 -- -- 46
2017-12-07 18:00:00 11.4 0 Calma 5 Noroeste 0 -- -- 44
2017-12-07 17:00:00 15.3 2 Oeste 6 Sur 0 -- -- 33
2017-12-07 16:00:00 15.5 5 Sudoeste 8 Sur 0 -- -- 32
2017-12-07 15:00:00 15.1 4 Sudoeste 9 Sudoeste 0 -- -- 36
2017-12-07 14:00:00 12.2 2 Sur 6 Sudoeste 0 -- -- 47
2017-12-07 13:00:00 9.3 0 Calma 5 Nordeste 0 -- -- 55
2017-12-07 12:00:00 6.8 0 Calma 3 Sur 0 -- -- 64
2017-12-07 11:00:00 5.7 0 Calma 6 Sur 0 -- -- 66
2017-12-07 10:00:00 3.7 0 Calma 2 Sur 0 -- -- 71
2017-12-07 09:00:00 1.2 2 Este 5 Nordeste 0 -- -- 77
2017-12-07 08:00:00 1 0 Calma 4 Nordeste 0 -- -- 74
2017-12-07 07:00:00 1.2 0 Calma 4 Nordeste 0 -- -- 73
2017-12-07 06:00:00 1.3 0 Calma 2 Nordeste 0 -- -- 72
2017-12-07 05:00:00 2 0 Calma 3 Nordeste 0 -- -- 68
2017-12-07 04:00:00 2.2 2 Nordeste 4 Nordeste 0 -- -- 68
2017-12-07 03:00:00 3.2 0 Calma 2 Nordeste 0 -- -- 61
2017-12-07 02:00:00 4 0 Calma 2 Nordeste 0 -- -- 58
2017-12-07 01:00:00 4.4 0 Calma 2 Nordeste 0 -- -- 56
2017-12-07 00:00:00 5.4 0 Calma 2 Sudoeste 0 -- -- 54
2017-12-06 23:00:00 6.3 0 Calma 2 Nordeste 0 -- -- 52
2017-12-06 22:00:00 7.2 0 Calma 3 Nordeste 0 -- -- 49
2017-12-06 21:00:00 8.2 0 Calma 2 Nordeste 0 -- -- 47
2017-12-06 20:00:00 8.9 0 Calma 2 Norte 0 -- -- 45
2017-12-06 19:00:00 9.7 0 Calma 4 Norte 0 -- -- 43
2017-12-06 18:00:00 11.6 0 Calma 6 Sudoeste 0 -- -- 42
2017-12-06 17:00:00 15.5 2 Oeste 6 Oeste 0 -- -- 32
2017-12-06 16:00:00 16.9 3 Oeste 5 Sudoeste 0 -- -- 27
2017-12-06 15:00:00 15.8 2 Este 8 Sur 0 -- -- 28
2017-12-06 14:00:00 13.5 3 Nordeste 10 Sudeste 0 -- -- 35
2017-12-06 13:00:00 12.7 3 Sudoeste 8 Sudoeste 0 -- -- 42
2017-12-06 12:00:00 8.5 3 Nordeste 7 Nordeste 0 -- -- 49
2017-12-06 11:00:00 6.1 2 Este 8 Nordeste 0 -- -- 56
2017-12-06 10:00:00 3.1 0 Calma 4 Este 0 -- -- 68
2017-12-06 09:00:00 1.4 0 Calma 5 Nordeste 0 -- -- 69
2017-12-06 08:00:00 1.1 2 Nordeste 5 Este 0 -- -- 70
2017-12-06 07:00:00 1.2 0 Calma 2 Nordeste 0 -- -- 70
2017-12-06 06:00:00 1.6 0 Calma 3 Nordeste 0 -- -- 66
2017-12-06 05:00:00 1.7 0 Calma 2 Oeste 0 -- -- 64
2017-12-06 04:00:00 2.4 0 Calma 4 Este 0 -- -- 58
2017-12-06 03:00:00 3.1 0 Calma 3 Este 0 -- -- 55
2017-12-06 02:00:00 4.1 0 Calma 4 Este 0 -- -- 53
2017-12-06 01:00:00 4.7 0 Calma 6 Este 0 -- -- 51
2017-12-06 00:00:00 5 2 Este 5 Nordeste 0 -- -- 52
2017-12-05 23:00:00 5 4 Nordeste 8 Nordeste 0 -- -- 53
2017-12-05 22:00:00 6 5 Nordeste 8 Nordeste 0 -- -- 49
2017-12-05 21:00:00 7.3 2 Este 6 Este 0 -- -- 43
2017-12-05 20:00:00 8 0 Calma 6 Este 0 -- -- 43
2017-12-05 19:00:00 9.4 4 Este 8 Este 0 -- -- 39
2017-12-05 18:00:00 12.4 0 Calma 4 Nordeste 0 -- -- 33
2017-12-05 17:00:00 15.3 2 Este 4 Nordeste 0 -- -- 29
2017-12-05 16:00:00 15.3 2 Nordeste 6 Sudoeste 0 -- -- 29
2017-12-05 15:00:00 13.5 2 Norte 10 Este 0 -- -- 32
2017-12-05 14:00:00 12.2 2 Nordeste 8 Nordeste 0 -- -- 35
2017-12-05 13:00:00 10.3 3 Nordeste 8 Nordeste 0 -- -- 41
2017-12-05 12:00:00 8.7 4 Nordeste 10 Este 0 -- -- 45
2017-12-05 11:00:00 7 3 Este 8 Nordeste 0 -- -- 49
2017-12-05 10:00:00 3.5 2 Oeste 5 Nordeste 0 -- -- 62
2017-12-05 09:00:00 1.1 0 Calma 6 Nordeste 0 -- -- 68
2017-12-05 08:00:00 1.7 0 Calma 9 Este 0 -- -- 66
2017-12-05 07:00:00 1.9 4 Este 10 Este 0 -- -- 65
2017-12-05 06:00:00 1.7 0 Calma 4 Norte 0 -- -- 66
2017-12-05 05:00:00 1.8 3 Norte 5 Nordeste 0 -- -- 65
2017-12-05 04:00:00 2 0 Calma 4 Noroeste 0 -- -- 64
2017-12-05 03:00:00 3 2 Sudeste 9 Este 0 -- -- 59
2017-12-05 02:00:00 3.9 0 Calma 9 Este 0 -- -- 56
2017-12-05 01:00:00 5.2 4 Este 19 Este 0 -- -- 50
2017-12-05 00:00:00 5.5 8 Este 21 Este 0 -- -- 53
2017-12-04 23:00:00 5.5 8 Este 18 Este 0 -- -- 55
2017-12-04 22:00:00 5.7 5 Este 14 Sudeste 0 -- -- 56
2017-12-04 21:00:00 6.1 5 Este 15 Este 0 -- -- 55
2017-12-04 20:00:00 6.5 6 Este 16 Nordeste 0 -- -- 53
2017-12-04 19:00:00 7.4 10 Este 18 Este 0 -- -- 50
2017-12-04 18:00:00 9.2 3 Este 14 Este 0 -- -- 44
2017-12-04 17:00:00 12.9 4 Este 14 Este 0 -- -- 36
2017-12-04 16:00:00 14.1 6 Sudeste 16 Este 0 -- -- 35
2017-12-04 15:00:00 12.7 7 Sudeste 19 Nordeste 0 -- -- 40
2017-12-04 14:00:00 10.3 11 Este 27 Este 0 -- -- 46
2017-12-04 13:00:00 8.9 17 Este 30 Este 0 -- -- 51
2017-12-04 12:00:00 8.2 10 Este 23 Este 0 -- -- 54
2017-12-04 11:00:00 6.1 4 Este 14 Este 0 -- -- 52
2017-12-04 10:00:00 3.1 5 Este 14 Este 0 -- -- 55
2017-12-04 09:00:00 1 0 Calma 9 Este 0 -- -- 58
2017-12-04 08:00:00 1.1 4 Este 11 Este 0 -- -- 56
2017-12-04 07:00:00 1.2 2 Este 8 Nordeste 0 -- -- 54
2017-12-04 06:00:00 1 2 Nordeste 4 Nordeste 0 -- -- 52
2017-12-04 05:00:00 1.7 0 Calma 3 Nordeste 0 -- -- 51
2017-12-04 04:00:00 1.6 2 Este 4 Este 0 -- -- 49
2017-12-04 03:00:00 1.6 0 Calma 5 Este 0 -- -- 50
2017-12-04 02:00:00 1.8 3 Nordeste 5 Nordeste 0 -- -- 51
2017-12-04 01:00:00 2.3 4 Nordeste 8 Nordeste 0 -- -- 47
2017-12-04 00:00:00 2.8 7 Nordeste 10 Nordeste 0 -- -- 46
2017-12-03 23:00:00 2.8 5 Este 8 Este 0 -- -- 47
2017-12-03 22:00:00 3.4 4 Nordeste 8 Este 0 -- -- 44
2017-12-03 21:00:00 4.5 3 Este 9 Este 0 -- -- 39
2017-12-03 20:00:00 5.4 4 Este 9 Este 0 -- -- 37
2017-12-03 19:00:00 6.9 4 Nordeste 9 Nordeste 0 -- -- 33
2017-12-03 18:00:00 8.1 2 Nordeste 8 Este 0 -- -- 31
2017-12-03 17:00:00 10.6 5 Nordeste 15 Nordeste 0 -- -- 28
2017-12-03 16:00:00 10.1 8 Nordeste 16 Nordeste 0 -- -- 28
2017-12-03 15:00:00 9.6 10 Nordeste 24 Nordeste 0 -- -- 30
2017-12-03 14:00:00 8.8 11 Nordeste 25 Nordeste 0 -- -- 31
2017-12-03 13:00:00 7.5 10 Nordeste 24 Nordeste 0 -- -- 38
2017-12-03 12:00:00 6.5 11 Nordeste 21 Nordeste 0 -- -- 43
2017-12-03 11:00:00 4.7 9 Nordeste 17 Nordeste 0 -- -- 58
2017-12-03 10:00:00 2.8 2 Nordeste 5 Nordeste 0 -- -- 62
2017-12-03 09:00:00 0.8 0 Calma 6 Norte 0 -- -- 70
2017-12-03 08:00:00 0.7 0 Calma 5 Este 0 -- -- 69
2017-12-03 07:00:00 1.3 2 Este 5 Nordeste 0 -- -- 66
2017-12-03 06:00:00 2.7 5 Nordeste 13 Nordeste 0 -- -- 60
2017-12-03 05:00:00 2.1 4 Nordeste 11 Nordeste 0 -- -- 67
2017-12-03 04:00:00 2.9 3 Norte 7 Norte 0 -- -- 63
2017-12-03 03:00:00 2.9 0 Calma 3 Norte 0 -- -- 63
2017-12-03 02:00:00 2.8 2 Nordeste 3 Este 0 -- -- 66
2017-12-03 01:00:00 3.6 0 Calma 4 Nordeste 0 -- -- 63
2017-12-03 00:00:00 3.4 0 Calma 5 Norte 0 -- -- 63
2017-12-02 23:00:00 3.5 2 Nordeste 5 Este 0 -- -- 64
2017-12-02 22:00:00 4.1 0 Calma 5 Este 0 -- -- 61
2017-12-02 21:00:00 4.3 0 Calma 3 Norte 0 -- -- 60
2017-12-02 20:00:00 4.9 0 Calma 5 Norte 0 -- -- 60
2017-12-02 19:00:00 5.9 0 Calma 6 Noroeste 0 -- -- 57
2017-12-02 18:00:00 7.9 0 Calma 27 Nordeste 0 -- -- 50
2017-12-02 17:00:00 10.1 8 Nordeste 27 Norte 0 -- -- 34
2017-12-02 16:00:00 10.8 8 Nordeste 19 Norte 0 -- -- 35
2017-12-02 15:00:00 9.9 11 Norte 24 Nordeste 0 -- -- 39
2017-12-02 14:00:00 9.5 2 Noroeste 9 Norte 0 -- -- 42
2017-12-02 13:00:00 7.6 3 Norte 7 Nordeste 0 -- -- 47
2017-12-02 12:00:00 7.6 3 Sur 11 Sudoeste 0 -- -- 50
2017-12-02 11:00:00 4.6 3 Sudoeste 6 Sudoeste 0 -- -- 61
2017-12-02 10:00:00 1.4 0 Calma 4 Nordeste 0 -- -- 70
2017-12-02 09:00:00 -0.4 0 Calma 4 Norte 0 -- -- 75
2017-12-02 08:00:00 0 0 Calma 0 Calma 0 -- -- 70
2017-12-02 07:00:00 0.8 0 Calma 3 Nordeste 0 -- -- 66
2017-12-02 06:00:00 1.6 0 Calma 9 Nordeste 0 -- -- 62
2017-12-02 05:00:00 2.4 3 Nordeste 9 Nordeste 0 -- -- 57
2017-12-02 04:00:00 2.7 5 Nordeste 9 Nordeste 0 -- -- 56
2017-12-02 03:00:00 2.5 0 Calma 4 Este 0 -- -- 58
2017-12-02 02:00:00 2.7 2 Nordeste 10 Este 0 -- -- 59
2017-12-02 01:00:00 3.3 0 Calma 25 Nordeste 0 -- -- 57
2017-12-02 00:00:00 4.2 14 Nordeste 28 Nordeste 0 -- -- 54
2017-12-01 23:00:00 4.9 13 Nordeste 32 Nordeste 0 -- -- 55
2017-12-01 22:00:00 5.8 19 Nordeste 33 Nordeste 0 -- -- 55
2017-12-01 21:00:00 6.6 17 Nordeste 34 Nordeste 0 -- -- 56
2017-12-01 20:00:00 6.6 8 Nordeste 39 Norte 0 -- -- 69
2017-12-01 19:00:00 8.6 2 Norte 12 Oeste 0 -- -- 65
2017-12-01 18:00:00 8.6 2 Noroeste 21 Noroeste 0 -- -- 64
2017-12-01 17:00:00 10.7 4 Noroeste 17 Noroeste 0 -- -- 56
2017-12-01 16:00:00 10.4 4 Noroeste 32 Noroeste 0 -- -- 58
2017-12-01 15:00:00 9.6 6 Oeste 32 Oeste 0 -- -- 57
2017-12-01 14:00:00 9.2 8 Oeste 22 Oeste 0 -- -- 56
2017-12-01 13:00:00 7.9 8 Oeste 25 Oeste 0 -- -- 59
2017-12-01 12:00:00 6.8 5 Oeste 14 Sudoeste 0 -- -- 64
2017-12-01 11:00:00 4.7 3 Sur 9 Sur 0 -- -- 73
2017-12-01 10:00:00 0.9 2 Sur 4 Sur 0 -- -- 81
2017-12-01 09:00:00 -0.5 0 Calma 6 Sur 0 -- -- 86
2017-12-01 08:00:00 -0.6 2 Sur 4 Sur 0 -- -- 86
2017-12-01 07:00:00 -0.7 0 Calma 2 Nordeste 0 -- -- 86
2017-12-01 06:00:00 -0.2 0 Calma 2 Sudoeste 0 -- -- 82
2017-12-01 05:00:00 0.4 0 Calma 3 Norte 0 -- -- 80
2017-12-01 04:00:00 1.2 0 Calma 2 Sur 0 -- -- 75
2017-12-01 03:00:00 2.5 0 Calma 2 Nordeste 0 -- -- 68
2017-12-01 02:00:00 3.4 0 Calma 2 Norte 0 -- -- 63
2017-12-01 01:00:00 4 0 Calma 8 Nordeste 0 -- -- 60
2017-12-01 00:00:00 4.9 4 Nordeste 9 Nordeste 0 -- -- 55
2017-11-30 23:00:00 4.9 2 Nordeste 4 Nordeste 0 -- -- 55
2017-11-30 22:00:00 5.1 2 Norte 5 Nordeste 0 -- -- 56
2017-11-30 21:00:00 5.5 3 Nordeste 14 Norte 0 -- -- 54
2017-11-30 20:00:00 6.8 4 Norte 21 Norte 0 -- -- 47
2017-11-30 19:00:00 7.6 9 Nordeste 32 Norte 0 -- -- 44
2017-11-30 18:00:00 8.3 8 Norte 28 Nordeste 0 -- -- 40
2017-11-30 17:00:00 10.3 12 Nordeste 32 Nordeste 0 -- -- 35
2017-11-30 16:00:00 10.4 15 Nordeste 35 Nordeste 0 -- -- 36
2017-11-30 15:00:00 10.4 12 Nordeste 35 Nordeste 0 -- -- 39
2017-11-30 14:00:00 9.8 14 Nordeste 35 Nordeste 0 -- -- 36
2017-11-30 13:00:00 9 16 Nordeste 38 Nordeste 0 -- -- 41
2017-11-30 12:00:00 8.1 15 Nordeste 38 Nordeste 0 -- -- 45
2017-11-30 11:00:00 6.9 18 Nordeste 34 Nordeste 0 -- -- 51
2017-11-30 10:00:00 5.6 13 Este 24 Este 0 -- -- 54
2017-11-30 09:00:00 3.9 2 Nordeste 10 Este 0 -- -- 65
2017-11-30 08:00:00 4.1 3 Nordeste 12 Este 0 -- -- 67
2017-11-30 07:00:00 4.8 8 Nordeste 19 Nordeste 0 -- -- 67
2017-11-30 06:00:00 5.3 10 Nordeste 22 Este 0 -- -- 67
2017-11-30 05:00:00 5.8 8 Este 19 Nordeste 0 -- -- 67
2017-11-30 04:00:00 6.2 10 Nordeste 21 Este 0 -- -- 67
2017-11-30 03:00:00 6.5 11 Nordeste 17 Norte 0 -- -- 66
2017-11-30 02:00:00 6.4 8 Nordeste 15 Nordeste 0 -- -- 67
2017-11-30 01:00:00 7 10 Nordeste 18 Nordeste 0 -- -- 65
2017-11-30 00:00:00 7.4 9 Nordeste 22 Nordeste 0 -- -- 65
2017-11-29 23:00:00 8 12 Nordeste 21 Nordeste 0 -- -- 64
2017-11-29 22:00:00 8.6 10 Nordeste 18 Nordeste 0 -- -- 68
2017-11-29 21:00:00 9.3 6 Nordeste 12 Nordeste 0 -- -- 74
2017-11-29 20:00:00 9.8 3 Nordeste 15 Norte 0 -- -- 75
2017-11-29 19:00:00 10.1 7 Norte 19 Norte 0 -- -- 79
2017-11-29 18:00:00 11.5 2 Noroeste 13 Noroeste 0 -- -- 79
2017-11-29 17:00:00 13.8 4 Oeste 16 Noroeste 0 -- -- 69
2017-11-29 16:00:00 14.4 5 Noroeste 20 Oeste 0 -- -- 68
2017-11-29 15:00:00 14.2 6 Oeste 18 Oeste 0 -- -- 80
2017-11-29 14:00:00 13 4 Oeste 10 Noroeste 0 -- -- 88
2017-11-29 13:00:00 11.3 3 Noroeste 13 Noroeste 0 -- -- 96
2017-11-29 12:00:00 10.9 3 Noroeste 12 Noroeste 0 -- -- 99
2017-11-29 11:00:00 11.2 3 Noroeste 9 Oeste 0 -- -- 99
2017-11-29 10:00:00 11 0 Calma 9 Sudoeste 0 -- -- 100
2017-11-29 09:00:00 11 0 Calma 3 Sudoeste 0.2 -- -- 99
2017-11-29 08:00:00 11 0 Calma 8 Norte 0.2 -- -- 99
2017-11-29 07:00:00 11.1 2 Norte 5 Norte 0.2 -- -- 99
2017-11-29 06:00:00 11.2 0 Calma 3 Este 0.2 -- -- 99
2017-11-29 05:00:00 11.2 0 Calma 8 Norte 3.6 -- -- 99
2017-11-29 04:00:00 11.4 0 Calma 3 Nordeste 0.2 -- -- 99
2017-11-29 03:00:00 11.4 0 Calma 5 Norte 0 -- -- 98
2017-11-29 02:00:00 11.3 4 Norte 5 Norte 0.2 -- -- 98
2017-11-29 01:00:00 11.2 0 Calma 8 Sudoeste 1.2 -- -- 98
2017-11-29 00:00:00 11.1 6 Sudoeste 9 Sur 1.4 -- -- 97
2017-11-28 23:00:00 11.3 5 Sudoeste 19 Sudoeste 0.4 -- -- 94
2017-11-28 22:00:00 11.5 6 Sur 23 Sur 0.4 -- -- 91
2017-11-28 21:00:00 11.8 9 Sur 25 Sur 0 -- -- 91
2017-11-28 20:00:00 12.1 11 Sur 23 Sur 0.2 -- -- 91
2017-11-28 19:00:00 11.9 4 Sur 9 Sur 0.4 -- -- 94
2017-11-28 18:00:00 11.9 0 Calma 10 Sur 0 -- -- 95
2017-11-28 17:00:00 12.1 0 Calma 6 Este 0.2 -- -- 97
2017-11-28 16:00:00 11.8 2 Este 5 Sur 0.8 -- -- 97
2017-11-28 15:00:00 11.6 4 Sudoeste 7 Sur 0.6 -- -- 96
2017-11-28 14:00:00 11.6 0 Calma 6 Sur 0.6 -- -- 96
2017-11-28 13:00:00 11.3 3 Sudoeste 5 Sudoeste 0.8 -- -- 96
2017-11-28 12:00:00 10.9 2 Sur 4 Sudoeste 0.4 -- -- 95
2017-11-28 11:00:00 11.1 0 Calma 5 Este 0.2 -- -- 95
2017-11-28 10:00:00 10.7 5 Sur 10 Sur 0.2 -- -- 94
2017-11-28 09:00:00 10.5 0 Calma 10 Sudoeste 0 -- -- 89
2017-11-28 08:00:00 11.2 0 Calma 13 Sudoeste 0 -- -- 82
2017-11-28 07:00:00 11.1 6 Sudoeste 15 Sudoeste 0 -- -- 81
2017-11-28 06:00:00 11.3 9 Sur 13 Sur 0 -- -- 79
2017-11-28 05:00:00 11.1 10 Sudoeste 17 Sudoeste 0 -- -- 79
2017-11-28 04:00:00 11.5 5 Sur 15 Sudoeste 0 -- -- 77
2017-11-28 03:00:00 11.4 13 Sudoeste 17 Sudoeste 0 -- -- 77
2017-11-28 02:00:00 11.8 10 Sudoeste 14 Sudoeste 0 -- -- 75
2017-11-28 01:00:00 12 9 Sudoeste 13 Sudoeste 0 -- -- 73
2017-11-28 00:00:00 12.3 5 Sudoeste 9 Sudoeste 0 -- -- 70
2017-11-27 23:00:00 12.5 6 Sudoeste 10 Sudoeste 0 -- -- 69
2017-11-27 22:00:00 12.2 4 Sudoeste 8 Sudoeste 0 -- -- 67
2017-11-27 21:00:00 11.9 0 Calma 3 Este 0 -- -- 63
2017-11-27 20:00:00 12.7 2 Este 5 Este 0 -- -- 61
2017-11-27 19:00:00 13.5 0 Calma 2 Norte 0 -- -- 58
2017-11-27 18:00:00 14.8 2 Nordeste 2 Nordeste 0 -- -- 54
2017-11-27 17:00:00 16.5 0 Calma 10 Sudoeste 0 -- -- 49
2017-11-27 16:00:00 17.5 5 Sudoeste 14 Sudoeste 0 -- -- 47
2017-11-27 15:00:00 16.5 4 Sudoeste 15 Sudoeste 0 -- -- 49
2017-11-27 14:00:00 15.6 8 Sudoeste 13 Sudoeste 0 -- -- 51
2017-11-27 13:00:00 14.3 3 Sur 8 Nordeste 0 -- -- 45
2017-11-27 12:00:00 11.9 3 Nordeste 9 Este 0 -- -- 44
2017-11-27 11:00:00 10.6 2 Nordeste 8 Este 0 -- -- 43
2017-11-27 10:00:00 8.9 0 Calma 8 Nordeste 0 -- -- 49
2017-11-27 09:00:00 7.6 0 Calma 7 Este 0 -- -- 51
2017-11-27 08:00:00 7.4 2 Este 10 Este 0 -- -- 49
2017-11-27 07:00:00 7.2 5 Nordeste 10 Este 0 -- -- 50
2017-11-27 06:00:00 7.4 0 Calma 6 Noroeste 0 -- -- 48
2017-11-27 05:00:00 7.5 0 Calma 8 Este 0 -- -- 47
2017-11-27 04:00:00 7.7 3 Nordeste 8 Este 0 -- -- 45
2017-11-27 03:00:00 7.6 0 Calma 10 Este 0 -- -- 45
2017-11-27 02:00:00 7.3 0 Calma 8 Este 0 -- -- 44
2017-11-27 01:00:00 7.7 2 Este 12 Este 0 -- -- 42
2017-11-27 00:00:00 8 0 Calma 9 Este 0 -- -- 42
2017-11-26 23:00:00 8.1 2 Nordeste 9 Nordeste 0 -- -- 42
2017-11-26 22:00:00 8.5 3 Nordeste 13 Este 0 -- -- 43
2017-11-26 21:00:00 9.7 6 Este 14 Este 0 -- -- 39
2017-11-26 20:00:00 10.5 4 Este 12 Este 0 -- -- 43
2017-11-26 19:00:00 11.8 4 Este 10 Este 0 -- -- 45
2017-11-26 18:00:00 13.7 4 Este 10 Nordeste 0 -- -- 42
2017-11-26 17:00:00 16.3 3 Sur 15 Este 0 -- -- 38
2017-11-26 16:00:00 15.7 8 Nordeste 18 Nordeste 0 -- -- 40
2017-11-26 15:00:00 15.2 9 Nordeste 19 Nordeste 0 -- -- 40
2017-11-26 14:00:00 15.1 8 Este 16 Este 0 -- -- 39
2017-11-26 13:00:00 13.6 5 Este 22 Nordeste 0 -- -- 43
2017-11-26 12:00:00 12 8 Este 20 Este 0 -- -- 48
2017-11-26 11:00:00 11 10 Este 26 Este 0 -- -- 52
2017-11-26 10:00:00 9.5 4 Este 17 Este 0 -- -- 63
2017-11-26 09:00:00 7.7 5 Este 14 Este 0 -- -- 74
2017-11-26 08:00:00 7.8 2 Este 9 Nordeste 0 -- -- 75
2017-11-26 07:00:00 8.4 3 Este 14 Este 0 -- -- 77
2017-11-26 06:00:00 9.2 6 Este 17 Este 0 -- -- 77
2017-11-26 05:00:00 9.2 6 Nordeste 12 Este 0 -- -- 81
2017-11-26 04:00:00 9.6 3 Este 6 Nordeste 0 -- -- 83
2017-11-26 03:00:00 10 0 Calma 5 Nordeste 0 -- -- 79
2017-11-26 02:00:00 10.5 0 Calma 4 Sur 0 -- -- 81
2017-11-26 01:00:00 10.9 0 Calma 5 Sudoeste 0 -- -- 78
2017-11-26 00:00:00 11.3 3 Sur 6 Sudoeste 0 -- -- 73
2017-11-25 23:00:00 12.2 0 Calma 4 Nordeste 0 -- -- 65
2017-11-25 22:00:00 12.8 0 Calma 7 Sur 0 -- -- 65
2017-11-25 21:00:00 13.3 2 Sur 11 Sur 0 -- -- 60
2017-11-25 20:00:00 13.8 3 Sur 6 Sudoeste 0 -- -- 53
2017-11-25 19:00:00 14 0 Calma 3 Nordeste 0 -- -- 54
2017-11-25 18:00:00 14.5 0 Calma 7 Sudoeste 0 -- -- 51
2017-11-25 17:00:00 15.2 2 Oeste 6 Oeste 0 -- -- 50
2017-11-25 16:00:00 15.6 0 Calma 6 Oeste 0 -- -- 49
2017-11-25 15:00:00 15.3 4 Sudoeste 10 Sudoeste 0 -- -- 46
2017-11-25 14:00:00 14.6 6 Sudoeste 14 Sudoeste 0 -- -- 48
2017-11-25 13:00:00 14.3 7 Sudoeste 13 Sudoeste 0 -- -- 47
2017-11-25 12:00:00 13.9 9 Sudoeste 12 Sudoeste 0 -- -- 46
2017-11-25 11:00:00 13.3 0 Calma 12 Sudoeste 0 -- -- 50
2017-11-25 10:00:00 12.9 7 Sudoeste 19 Sur 0 -- -- 48
2017-11-25 09:00:00 11.9 7 Sudoeste 14 Sur 0 -- -- 49
2017-11-25 08:00:00 12.2 6 Sur 9 Sudoeste 0 -- -- 49
2017-11-25 07:00:00 12.8 5 Sudoeste 12 Sudoeste 0 -- -- 46
2017-11-25 06:00:00 11.9 6 Sudoeste 9 Sudoeste 0 -- -- 49
2017-11-25 05:00:00 11.2 0 Calma 4 Sudoeste 0 -- -- 53
2017-11-25 04:00:00 12.1 0 Calma 5 Sudoeste 0 -- -- 49
2017-11-25 03:00:00 13.3 4 Sudoeste 8 Sudoeste 0 -- -- 44
2017-11-25 02:00:00 14.1 4 Sudoeste 10 Sudoeste 0 -- -- 43
2017-11-25 01:00:00 14.5 5 Sudoeste 12 Sudoeste 0 -- -- 43
2017-11-25 00:00:00 15 9 Sudoeste 15 Sudoeste 0 -- -- 42
2017-11-24 23:00:00 15.3 10 Sudoeste 17 Sudoeste 0 -- -- 41
2017-11-24 22:00:00 15.7 10 Sudoeste 15 Sur 0 -- -- 40
2017-11-24 21:00:00 16.6 7 Sur 14 Sur 0 -- -- 37
2017-11-24 20:00:00 16.9 5 Sur 27 Sudoeste 0 -- -- 36
2017-11-24 19:00:00 18.9 12 Sudoeste 23 Sudoeste 0 -- -- 32
2017-11-24 18:00:00 19.3 7 Sudoeste 28 Sudoeste 0 -- -- 31
2017-11-24 17:00:00 21.1 15 Sudoeste 26 Sudoeste 0 -- -- 28
2017-11-24 16:00:00 21.2 4 Sudoeste 22 Sudoeste 0 -- -- 28
2017-11-24 15:00:00 22.1 9 Sudoeste 29 Sur 0 -- -- 27
2017-11-24 14:00:00 22.1 14 Sur 26 Sur 0 -- -- 27
2017-11-24 13:00:00 18.5 8 Sur 12 Sur 0 -- -- 33
2017-11-24 12:00:00 17.6 7 Sudoeste 11 Sur 0 -- -- 34
2017-11-24 11:00:00 16.3 4 Sudoeste 9 Sur 0 -- -- 40
2017-11-24 10:00:00 13.5 4 Sudoeste 7 Sur 0 -- -- 46
2017-11-24 09:00:00 12 3 Sur 7 Sudoeste 0 -- -- 47
2017-11-24 08:00:00 11.5 3 Sudoeste 12 Sur 0 -- -- 47
2017-11-24 07:00:00 12.4 9 Sudoeste 15 Sudoeste 0 -- -- 45
2017-11-24 06:00:00 12.9 11 Sudoeste 16 Sudoeste 0 -- -- 43
2017-11-24 05:00:00 13 8 Sudoeste 14 Sudoeste 0 -- -- 42
2017-11-24 04:00:00 13.6 4 Sudoeste 9 Sudoeste 0 -- -- 41
2017-11-24 03:00:00 14.1 6 Sudoeste 12 Sur 0 -- -- 40
2017-11-24 02:00:00 15 5 Sur 24 Sur 0 -- -- 38
2017-11-24 01:00:00 16.2 10 Sur 20 Sudoeste 0 -- -- 35
2017-11-24 00:00:00 15.9 4 Sudoeste 15 Sur 0 -- -- 36
2017-11-23 23:00:00 16 2 Sudoeste 13 Sudoeste 0 -- -- 34
2017-11-23 22:00:00 16.3 6 Sur 20 Sur 0 -- -- 33
2017-11-23 21:00:00 16.7 8 Sur 21 Sur 0 -- -- 31
2017-11-23 20:00:00 17.4 11 Sur 26 Sur 0 -- -- 30
2017-11-23 19:00:00 18.1 12 Sur 26 Sur 0 -- -- 29
2017-11-23 18:00:00 18.4 7 Sudoeste 14 Sur 0 -- -- 30
2017-11-23 17:00:00 20.3 5 Sur 22 Sudoeste 0 -- -- 28
2017-11-23 16:00:00 20.7 7 Sudoeste 21 Sudoeste 0 -- -- 27
2017-11-23 15:00:00 20.7 5 Sur 14 Sudoeste 0 -- -- 29
2017-11-23 14:00:00 20.2 5 Sudoeste 12 Sudoeste 0 -- -- 31
2017-11-23 13:00:00 16.7 4 Sudoeste 16 Sur 0 -- -- 38
2017-11-23 12:00:00 16.2 10 Sudoeste 16 Sudoeste 0 -- -- 37
2017-11-23 11:00:00 15.5 8 Sur 14 Sudoeste 0 -- -- 41
2017-11-23 10:00:00 13.9 5 Sur 8 Sudoeste 0 -- -- 42
2017-11-23 09:00:00 12 7 Sur 14 Sur 0 -- -- 47
2017-11-23 08:00:00 12.4 9 Sur 14 Sur 0 -- -- 46
2017-11-23 07:00:00 12.4 6 Sur 19 Sur 0 -- -- 46
2017-11-23 06:00:00 12.6 14 Sur 23 Sur 0 -- -- 46
2017-11-23 05:00:00 12.7 12 Sur 20 Sur 0 -- -- 44
2017-11-23 04:00:00 12.2 12 Sudoeste 16 Sudoeste 0 -- -- 43
2017-11-23 03:00:00 12.5 12 Sudoeste 15 Sudoeste 0 -- -- 41
2017-11-23 02:00:00 12.9 11 Sur 17 Sur 0 -- -- 37
2017-11-23 01:00:00 13.9 12 Sur 19 Sur 0 -- -- 34
2017-11-23 00:00:00 14.1 7 Sur 14 Sur 0 -- -- 34
2017-11-22 23:00:00 13.6 8 Sudoeste 17 Sudoeste 0 -- -- 36
2017-11-22 22:00:00 14 12 Sur 18 Sur 0 -- -- 35
2017-11-22 21:00:00 14.8 10 Sur 22 Sur 0 -- -- 35
2017-11-22 20:00:00 16.1 17 Sur 27 Sur 0 -- -- 33
2017-11-22 19:00:00 17.3 9 Sur 18 Sur 0 -- -- 32
2017-11-22 18:00:00 18.9 3 Sur 8 Noroeste 0 -- -- 29
2017-11-22 17:00:00 21.2 3 Noroeste 9 Oeste 0 -- -- 26
2017-11-22 16:00:00 21.8 3 Sudoeste 12 Sudoeste 0 -- -- 23
2017-11-22 15:00:00 22 6 Sudoeste 17 Sudoeste 0 -- -- 24
2017-11-22 14:00:00 20.4 12 Sudoeste 19 Sudoeste 0 -- -- 25
2017-11-22 13:00:00 18.7 9 Sudoeste 14 Sudoeste 0 -- -- 31
2017-11-22 12:00:00 16.6 5 Sur 10 Sur 0 -- -- 40
2017-11-22 11:00:00 12.5 2 Sudoeste 6 Sudoeste 0 -- -- 51
2017-11-22 10:00:00 8.9 0 Calma 2 Sudoeste 0 -- -- 57
2017-11-22 09:00:00 6.4 0 Calma 2 Norte 0 -- -- 61
2017-11-22 08:00:00 5.7 0 Calma 3 Nordeste 0 -- -- 64
2017-11-22 07:00:00 5.7 0 Calma 2 Este 0 -- -- 62
2017-11-22 06:00:00 6.3 0 Calma 4 Este 0 -- -- 61
2017-11-22 05:00:00 6.9 0 Calma 4 Sur 0 -- -- 58
2017-11-22 04:00:00 7.8 2 Sur 3 Sur 0 -- -- 54
2017-11-22 03:00:00 8.7 0 Calma 2 Oeste 0 -- -- 51
2017-11-22 02:00:00 9.7 0 Calma 2 Este 0 -- -- 47
2017-11-22 01:00:00 10.4 0 Calma 3 Nordeste 0 -- -- 45
2017-11-22 00:00:00 11.9 3 Nordeste 4 Nordeste 0 -- -- 41
2017-11-21 23:00:00 12.3 0 Calma 4 Sudoeste 0 -- -- 40
2017-11-21 22:00:00 13.3 0 Calma 4 Sudeste 0 -- -- 37
2017-11-21 21:00:00 14.9 0 Calma 2 Oeste 0 -- -- 34
2017-11-21 20:00:00 15.8 0 Calma 2 Nordeste 0 -- -- 32
2017-11-21 19:00:00 17 0 Calma 2 Nordeste 0 -- -- 31
2017-11-21 18:00:00 19.8 0 Calma 4 Noroeste 0 -- -- 27
2017-11-21 17:00:00 23.7 2 Oeste 5 Noroeste 0 -- -- 22
2017-11-21 16:00:00 23.3 2 Noroeste 9 Sudoeste 0 -- -- 22
2017-11-21 15:00:00 22.8 5 Sudoeste 15 Sur 0 -- -- 23
2017-11-21 14:00:00 22.1 7 Sudoeste 12 Sur 0 -- -- 24
2017-11-21 13:00:00 20.5 4 Sudoeste 9 Sudoeste 0 -- -- 33
2017-11-21 12:00:00 17.9 3 Sudoeste 6 Sur 0 -- -- 39
2017-11-21 11:00:00 13.9 3 Sudoeste 4 Sudoeste 0 -- -- 49
2017-11-21 10:00:00 10.4 0 Calma 3 Sudoeste 0 -- -- 58
2017-11-21 09:00:00 6.8 0 Calma 3 Nordeste 0 -- -- 63
2017-11-21 08:00:00 6.5 0 Calma 4 Nordeste 0 -- -- 63
2017-11-21 07:00:00 6.6 0 Calma 2 Sudeste 0 -- -- 63
2017-11-21 06:00:00 7 0 Calma 2 Nordeste 0 -- -- 61
2017-11-21 05:00:00 7.5 0 Calma 2 Sur 0 -- -- 60
2017-11-21 04:00:00 7.9 0 Calma 2 Sudeste 0 -- -- 58
2017-11-21 03:00:00 8.6 0 Calma 3 Sur 0 -- -- 56
2017-11-21 02:00:00 9.9 0 Calma 2 Sur 0 -- -- 52
2017-11-21 01:00:00 11.3 0 Calma 3 Nordeste 0 -- -- 47
2017-11-21 00:00:00 11.8 0 Calma 2 Sur 0 -- -- 46
2017-11-20 23:00:00 13.1 0 Calma 4 Nordeste 0 -- -- 43
2017-11-20 22:00:00 14.1 0 Calma 4 Nordeste 0 -- -- 39
2017-11-20 21:00:00 14.9 0 Calma 4 Este 0 -- -- 39
2017-11-20 20:00:00 15.9 0 Calma 2 Nordeste 0 -- -- 37
2017-11-20 19:00:00 17.1 0 Calma 2 Oeste 0 -- -- 36
2017-11-20 18:00:00 20 0 Calma 4 Sudoeste 0 -- -- 29
2017-11-20 17:00:00 22.9 3 Oeste 6 Oeste 0 -- -- 27
2017-11-20 16:00:00 24.1 2 Norte 9 Sudoeste 0 -- -- 23
2017-11-20 15:00:00 23.2 4 Sudoeste 11 Sudoeste 0 -- -- 27
2017-11-20 14:00:00 22.8 3 Sudeste 12 Noroeste 0 -- -- 28
2017-11-20 13:00:00 20.8 4 Sur 10 Este 0 -- -- 29
2017-11-20 12:00:00 16.5 5 Nordeste 9 Nordeste 0 -- -- 39
2017-11-20 11:00:00 14.2 3 Nordeste 5 Nordeste 0 -- -- 44
2017-11-20 10:00:00 10.9 0 Calma 4 Oeste 0 -- -- 52
2017-11-20 09:00:00 7.9 0 Calma 5 Nordeste 0 -- -- 62
2017-11-20 08:00:00 7.8 0 Calma 3 Nordeste 0 -- -- 66
2017-11-20 07:00:00 8.4 0 Calma 4 Nordeste 0 -- -- 56
2017-11-20 06:00:00 8.2 0 Calma 2 Nordeste 0 -- -- 57
2017-11-20 05:00:00 9.1 0 Calma 4 Nordeste 0 -- -- 54
2017-11-20 04:00:00 9 0 Calma 4 Nordeste 0 -- -- 55
2017-11-20 03:00:00 10.4 0 Calma 4 Nordeste 0 -- -- 50
2017-11-20 02:00:00 11.4 2 Nordeste 5 Nordeste 0 -- -- 46
2017-11-20 01:00:00 11.8 2 Este 9 Este 0 -- -- 45
2017-11-20 00:00:00 12.2 0 Calma 5 Nordeste 0 -- -- 44
2017-11-19 23:00:00 12.9 3 Nordeste 6 Este 0 -- -- 42
2017-11-19 22:00:00 13.7 3 Este 6 Nordeste 0 -- -- 40
2017-11-19 21:00:00 14.5 3 Nordeste 5 Nordeste 0 -- -- 37
2017-11-19 20:00:00 15.8 4 Nordeste 6 Nordeste 0 -- -- 35
2017-11-19 19:00:00 16.8 0 Calma 3 Nordeste 0 -- -- 35
2017-11-19 18:00:00 19.3 0 Calma 5 Norte 0 -- -- 31
2017-11-19 17:00:00 23.2 2 Norte 8 Sudoeste 0 -- -- 24
2017-11-19 16:00:00 23.1 4 Sudeste 18 Este 0 -- -- 25
2017-11-19 15:00:00 22.6 5 Sudoeste 10 Sudoeste 0 -- -- 27
2017-11-19 14:00:00 21.5 3 Norte 8 Sur 0 -- -- 29
2017-11-19 13:00:00 19 3 Nordeste 12 Este 0 -- -- 33
2017-11-19 12:00:00 16.1 6 Este 14 Este 0 -- -- 38
2017-11-19 11:00:00 14.1 3 Este 8 Este 0 -- -- 44
2017-11-19 10:00:00 11.4 2 Este 8 Este 0 -- -- 50
2017-11-19 09:00:00 8.5 2 Nordeste 8 Este 0 -- -- 55
2017-11-19 08:00:00 8.3 0 Calma 5 Este 0 -- -- 54
2017-11-19 07:00:00 8.6 0 Calma 7 Este 0 -- -- 52
2017-11-19 06:00:00 9.7 3 Nordeste 6 Este 0 -- -- 49
2017-11-19 05:00:00 10.1 4 Nordeste 8 Este 0 -- -- 47
2017-11-19 04:00:00 10.2 0 Calma 4 Este 0 -- -- 48
2017-11-19 03:00:00 10.4 0 Calma 4 Nordeste 0 -- -- 49
2017-11-19 02:00:00 10.7 0 Calma 8 Este 0 -- -- 50
2017-11-19 01:00:00 11.6 2 Este 4 Este 0 -- -- 47
2017-11-19 00:00:00 12.1 0 Calma 4 Este 0 -- -- 49
2017-11-18 23:00:00 13.3 2 Nordeste 4 Este 0 -- -- 45
2017-11-18 22:00:00 14.4 0 Calma 5 Nordeste 0 -- -- 44
2017-11-18 21:00:00 14.8 0 Calma 3 Norte 0 -- -- 42
2017-11-18 20:00:00 15.7 0 Calma 2 Norte 0 -- -- 40
2017-11-18 19:00:00 16.6 0 Calma 6 Oeste 0 -- -- 40
2017-11-18 18:00:00 18.5 0 Calma 9 Oeste 0 -- -- 36
2017-11-18 17:00:00 22.9 0 Calma 8 Nordeste 0 -- -- 26
2017-11-18 16:00:00 22.9 3 Norte 10 Sudeste 0 -- -- 28
2017-11-18 15:00:00 22.5 2 Noroeste 10 Nordeste 0 -- -- 29
2017-11-18 14:00:00 20.6 4 Nordeste 10 Sur 0 -- -- 32
2017-11-18 13:00:00 20.5 4 Sur 13 Este 0 -- -- 33
2017-11-18 12:00:00 17.1 4 Este 11 Este 0 -- -- 37
2017-11-18 11:00:00 15.1 3 Este 8 Nordeste 0 -- -- 40
2017-11-18 10:00:00 11.1 2 Sudoeste 4 Oeste 0 -- -- 56
2017-11-18 09:00:00 7.6 0 Calma 3 Sudoeste 0 -- -- 66
2017-11-18 08:00:00 7 0 Calma 2 Nordeste 0 -- -- 65
2017-11-18 07:00:00 7.6 0 Calma 0 Calma 0 -- -- 63
2017-11-18 06:00:00 7.9 0 Calma 5 Nordeste 0 -- -- 62
2017-11-18 05:00:00 7.9 0 Calma 2 Nordeste 0 -- -- 65
2017-11-18 04:00:00 8.3 0 Calma 3 Sur 0 -- -- 63
2017-11-18 03:00:00 9.3 0 Calma 2 Norte 0 -- -- 59
2017-11-18 02:00:00 9.9 0 Calma 4 Nordeste 0 -- -- 57
2017-11-18 01:00:00 11.2 4 Nordeste 6 Nordeste 0 -- -- 52
2017-11-18 00:00:00 12.1 0 Calma 6 Nordeste 0 -- -- 49
2017-11-17 23:00:00 13.2 0 Calma 4 Nordeste 0 -- -- 46
2017-11-17 22:00:00 14.3 0 Calma 3 Norte 0 -- -- 43
2017-11-17 21:00:00 15 0 Calma 5 Norte 0 -- -- 40
2017-11-17 20:00:00 15.6 0 Calma 5 Norte 0 -- -- 39
2017-11-17 19:00:00 16.2 0 Calma 5 Norte 0 -- -- 38
2017-11-17 18:00:00 18.1 0 Calma 8 Oeste 0 -- -- 35
2017-11-17 17:00:00 20.8 5 Oeste 11 Oeste 0 -- -- 31
2017-11-17 16:00:00 23.1 3 Oeste 9 Sudoeste 0 -- -- 29
2017-11-17 15:00:00 22.3 6 Sudoeste 12 Sudoeste 0 -- -- 29
2017-11-17 14:00:00 21.5 5 Sudoeste 13 Sur 0 -- -- 31
2017-11-17 13:00:00 20.2 4 Sur 9 Sur 0 -- -- 36
2017-11-17 12:00:00 17.6 3 Sudoeste 7 Sudoeste 0 -- -- 40
2017-11-17 11:00:00 14.4 2 Sudoeste 5 Sur 0 -- -- 50
2017-11-17 10:00:00 10.7 0 Calma 2 Sudoeste 0 -- -- 61
2017-11-17 09:00:00 7.3 0 Calma 3 Este 0 -- -- 71
2017-11-17 08:00:00 6.6 0 Calma 2 Nordeste 0 -- -- 70
2017-11-17 07:00:00 7.3 0 Calma 2 Nordeste 0 -- -- 66
2017-11-17 06:00:00 7.6 0 Calma 2 Nordeste 0 -- -- 64
2017-11-17 05:00:00 7.4 0 Calma 3 Nordeste 0 -- -- 65
2017-11-17 04:00:00 7.6 0 Calma 2 Sudoeste 0 -- -- 71
2017-11-17 03:00:00 8.3 0 Calma 4 Nordeste 0 -- -- 68
2017-11-17 02:00:00 9.1 0 Calma 0 Calma 0 -- -- 67
2017-11-17 01:00:00 10.2 0 Calma 0 Calma 0 -- -- 63
2017-11-17 00:00:00 11.8 0 Calma 4 Nordeste 0 -- -- 57
2017-11-16 23:00:00 12.4 0 Calma 3 Norte 0 -- -- 56
2017-11-16 22:00:00 13.5 0 Calma 4 Norte 0 -- -- 52
2017-11-16 21:00:00 13.8 0 Calma 2 Oeste 0 -- -- 51
2017-11-16 20:00:00 14.3 2 Norte 4 Norte 0 -- -- 49
2017-11-16 19:00:00 14.9 0 Calma 5 Norte 0 -- -- 48
2017-11-16 18:00:00 17 0 Calma 9 Sudoeste 0 -- -- 41
2017-11-16 17:00:00 19.8 4 Oeste 8 Noroeste 0 -- -- 35
2017-11-16 16:00:00 21.7 3 Oeste 9 Sudoeste 0 -- -- 30
2017-11-16 15:00:00 21.4 4 Oeste 9 Sudoeste 0 -- -- 30
2017-11-16 14:00:00 18.7 3 Nordeste 8 Este 0 -- -- 34
2017-11-16 13:00:00 17.9 4 Sur 9 Sudoeste 0 -- -- 39
2017-11-16 12:00:00 15.2 5 Sur 9 Sur 0 -- -- 49
2017-11-16 11:00:00 11.9 0 Calma 4 Nordeste 0 -- -- 54
2017-11-16 10:00:00 8.8 0 Calma 3 Sur 0 -- -- 73
2017-11-16 09:00:00 5.4 0 Calma 2 Sur 0 -- -- 81
2017-11-16 08:00:00 5.2 0 Calma 0 Calma 0 -- -- 81
2017-11-16 07:00:00 5.3 0 Calma 3 Sudoeste 0 -- -- 81
2017-11-16 06:00:00 5.5 0 Calma 2 Sur 0 -- -- 82
2017-11-16 05:00:00 6 0 Calma 0 Calma 0 -- -- 79
2017-11-16 04:00:00 6.7 0 Calma 2 Este 0 -- -- 76
2017-11-16 03:00:00 7 0 Calma 2 Noroeste 0 -- -- 75
2017-11-16 02:00:00 7.8 0 Calma 3 Nordeste 0 -- -- 74
2017-11-16 01:00:00 8.6 0 Calma 2 Nordeste 0 -- -- 71
2017-11-16 00:00:00 9 0 Calma 0 Calma 0 -- -- 69
2017-11-15 23:00:00 10.3 0 Calma 2 Nordeste 0 -- -- 64
2017-11-15 22:00:00 11.4 0 Calma 2 Nordeste 0 -- -- 60
2017-11-15 21:00:00 12.2 0 Calma 2 Norte 0 -- -- 57
2017-11-15 20:00:00 12.6 0 Calma 2 Noroeste 0 -- -- 56
2017-11-15 19:00:00 14 0 Calma 2 Norte 0 -- -- 52
2017-11-15 18:00:00 16.4 0 Calma 5 Norte 0 -- -- 46
2017-11-15 17:00:00 18.6 3 Oeste 6 Nordeste 0 -- -- 40
2017-11-15 16:00:00 19 2 Noroeste 10 Noroeste 0 -- -- 39
2017-11-15 15:00:00 19 4 Sudoeste 9 Oeste 0 -- -- 39
2017-11-15 14:00:00 17.6 6 Sudoeste 14 Sur 0 -- -- 42
2017-11-15 13:00:00 16.3 8 Sur 14 Sur 0 -- -- 45
2017-11-15 12:00:00 14.6 5 Sur 9 Sur 0 -- -- 40
2017-11-15 11:00:00 12.3 3 Sudoeste 5 Sur 0 -- -- 42
2017-11-15 10:00:00 8.4 0 Calma 3 Sudoeste 0 -- -- 47
2017-11-15 09:00:00 4.6 0 Calma 6 Nordeste 0 -- -- 52
2017-11-15 08:00:00 4.2 0 Calma 3 Nordeste 0 -- -- 55
2017-11-15 07:00:00 4.1 0 Calma 4 Sur 0 -- -- 54
2017-11-15 06:00:00 5.3 0 Calma 4 Nordeste 0 -- -- 49
2017-11-15 05:00:00 5.8 4 Nordeste 6 Nordeste 0 -- -- 44
2017-11-15 04:00:00 5.7 0 Calma 8 Este 0 -- -- 48
2017-11-15 03:00:00 7 3 Este 11 Este 0 -- -- 44
2017-11-15 02:00:00 7.3 2 Sudeste 10 Este 0 -- -- 40
2017-11-15 01:00:00 7.5 0 Calma 4 Este 0 -- -- 43
2017-11-15 00:00:00 7.6 2 Noroeste 4 Oeste 0 -- -- 49